createdAt,value
2022-11-29T00:00:37.004Z,49.53
2022-11-29T00:03:04.310Z,46.28
2022-11-29T00:05:34.316Z,48.00
2022-11-29T00:08:01.496Z,47.22
2022-11-29T00:10:28.879Z,49.28
2022-11-29T00:12:56.121Z,46.38
2022-11-29T00:15:23.308Z,45.78
2022-11-29T00:17:50.433Z,48.08
2022-11-29T00:20:17.714Z,44.72
2022-11-29T00:22:44.923Z,44.63
2022-11-29T00:25:12.097Z,47.22
2022-11-29T00:27:39.266Z,44.25
2022-11-29T00:30:06.856Z,44.67
2022-11-29T00:32:34.059Z,44.38
2022-11-29T00:35:05.245Z,42.97
2022-11-29T00:37:35.405Z,42.22
2022-11-29T00:40:02.735Z,42.40
2022-11-29T00:42:29.847Z,44.92
2022-11-29T00:44:57.055Z,44.40
2022-11-29T00:47:24.299Z,42.45
2022-11-29T00:49:51.613Z,41.53
2022-11-29T00:52:18.792Z,41.08
2022-11-29T00:54:46.179Z,42.33
2022-11-29T00:57:13.567Z,41.25
2022-11-29T00:59:40.766Z,41.63
2022-11-29T01:02:07.976Z,40.13
2022-11-29T01:04:35.178Z,39.05
2022-11-29T01:07:02.378Z,39.75
2022-11-29T01:09:29.543Z,38.45
2022-11-29T01:11:57.019Z,39.70
2022-11-29T01:14:24.383Z,41.47
2022-11-29T01:16:51.555Z,39.10
2022-11-29T01:19:18.689Z,39.33
2022-11-29T01:21:45.873Z,39.45
2022-11-29T01:24:12.995Z,38.22
2022-11-29T01:26:40.177Z,39.53
2022-11-29T01:29:07.815Z,38.70
2022-11-29T01:31:36.328Z,37.47
2022-11-29T01:34:04.649Z,37.17
2022-11-29T01:36:32.110Z,37.25
2022-11-29T01:38:59.754Z,36.65
2022-11-29T01:41:28.231Z,34.58
2022-11-29T01:43:55.406Z,38.30
2022-11-29T01:46:23.036Z,37.10
2022-11-29T01:48:51.010Z,36.60
2022-11-29T01:51:18.324Z,35.25
2022-11-29T01:53:45.523Z,36.97
2022-11-29T01:56:15.219Z,35.17
2022-11-29T01:58:43.461Z,37.05
2022-11-29T02:01:10.927Z,36.45
2022-11-29T02:03:38.291Z,37.22
2022-11-29T02:06:05.724Z,35.05
2022-11-29T02:08:36.456Z,35.97
2022-11-29T02:11:03.582Z,35.08
2022-11-29T02:13:49.032Z,35.15
2022-11-29T02:16:27.152Z,33.47
2022-11-29T02:18:57.340Z,34.17
2022-11-29T02:21:28.503Z,33.03
2022-11-29T02:23:58.430Z,33.63
2022-11-29T02:26:28.710Z,33.85
2022-11-29T02:29:10.056Z,32.65
2022-11-29T02:31:43.676Z,33.53
2022-11-29T02:34:19.856Z,31.83
2022-11-29T02:37:10.162Z,32.55
2022-11-29T02:39:38.774Z,32.47
2022-11-29T02:42:20.996Z,32.53
2022-11-29T02:44:59.324Z,32.47
2022-11-29T02:47:26.432Z,31.65
2022-11-29T02:50:05.606Z,31.23
2022-11-29T02:52:38.485Z,31.73
2022-11-29T02:55:09.186Z,31.25
2022-11-29T02:57:55.517Z,29.70
2022-11-29T03:02:52.619Z,29.92
2022-11-29T03:05:33.196Z,30.50
2022-11-29T03:08:12.528Z,30.08
2022-11-29T03:10:44.168Z,31.52
2022-11-29T03:13:17.337Z,30.63
2022-11-29T03:15:47.319Z,30.52
2022-11-29T03:18:43.928Z,29.13
2022-11-29T03:21:11.318Z,29.45
2022-11-29T03:23:39.478Z,29.38
2022-11-29T03:26:12.036Z,29.95
2022-11-29T03:28:46.320Z,30.40
2022-11-29T03:31:14.301Z,29.00
2022-11-29T03:33:41.463Z,28.98
2022-11-29T03:36:27.597Z,28.20
2022-11-29T03:38:58.801Z,28.67
2022-11-29T03:41:33.601Z,28.63
2022-11-29T03:44:04.057Z,29.30
2022-11-29T03:46:38.203Z,29.08
2022-11-29T03:49:11.797Z,27.60
2022-11-29T03:51:48.112Z,27.80
2022-11-29T03:54:35.526Z,29.27
2022-11-29T03:57:02.846Z,27.52
2022-11-29T03:59:30.029Z,26.63
2022-11-29T04:02:11.254Z,27.25
2022-11-29T04:04:57.480Z,26.92
2022-11-29T04:07:34.456Z,26.52
2022-11-29T04:10:20.459Z,26.40
2022-11-29T04:13:10.777Z,26.42
2022-11-29T04:15:55.894Z,26.73
2022-11-29T04:18:41.643Z,26.02
2022-11-29T04:21:27.563Z,26.10
2022-11-29T04:24:27.169Z,26.83
2022-11-29T04:27:15.758Z,26.08
2022-11-29T04:29:49.074Z,26.52
2022-11-29T04:32:28.264Z,25.88
2022-11-29T04:35:15.668Z,26.00
2022-11-29T04:37:55.520Z,25.50
2022-11-29T04:40:31.916Z,26.88
2022-11-29T04:43:02.343Z,25.58
2022-11-29T04:45:44.806Z,26.85
2022-11-29T04:48:23.201Z,23.95
2022-11-29T04:50:56.152Z,23.90
2022-11-29T04:53:26.090Z,24.25
2022-11-29T04:56:26.643Z,24.10
2022-11-29T04:59:04.058Z,23.08
2022-11-29T05:01:49.674Z,25.88
2022-11-29T05:04:16.892Z,23.77
2022-11-29T05:07:02.612Z,24.08
2022-11-29T05:09:38.098Z,23.35
2022-11-29T05:12:23.930Z,23.80
2022-11-29T05:15:09.534Z,23.67
2022-11-29T05:17:57.635Z,23.17
2022-11-29T05:20:43.701Z,21.45
2022-11-29T05:23:26.125Z,23.10
2022-11-29T05:26:01.944Z,21.88
2022-11-29T05:31:14.662Z,21.80
2022-11-29T05:33:41.794Z,22.10
2022-11-29T05:36:11.904Z,23.23
2022-11-29T05:38:58.060Z,21.63
2022-11-29T05:41:43.841Z,20.67
2022-11-29T05:44:16.444Z,22.55
2022-11-29T05:47:00.320Z,21.70
2022-11-29T05:49:33.358Z,20.58
2022-11-29T05:52:03.243Z,19.67
2022-11-29T05:54:33.204Z,21.75
2022-11-29T05:57:01.839Z,20.42
2022-11-29T05:59:29.800Z,20.55
2022-11-29T06:02:13.409Z,19.30
2022-11-29T06:04:59.501Z,21.30
2022-11-29T06:07:31.326Z,21.40
2022-11-29T06:10:02.107Z,20.73
2022-11-29T06:12:35.690Z,20.60
2022-11-29T06:15:23.352Z,23.85
2022-11-29T06:18:02.488Z,20.38
2022-11-29T06:21:01.894Z,21.17
2022-11-29T06:23:44.529Z,22.17
2022-11-29T06:26:17.917Z,20.30
2022-11-29T06:28:51.102Z,20.42
2022-11-29T06:31:38.474Z,22.70
2022-11-29T06:34:05.663Z,23.95
2022-11-29T06:36:36.557Z,19.77
2022-11-29T06:39:03.869Z,19.52
2022-11-29T06:41:31.249Z,19.88
2022-11-29T06:43:58.498Z,21.00
2022-11-29T06:46:32.217Z,19.70
2022-11-29T06:49:10.494Z,20.08
2022-11-29T06:51:47.714Z,19.25
2022-11-29T06:54:23.390Z,19.45
2022-11-29T06:56:53.538Z,20.63
2022-11-29T06:59:29.959Z,20.92
2022-11-29T07:02:32.755Z,19.38
2022-11-29T07:05:08.784Z,23.00
2022-11-29T07:07:36.385Z,19.85
2022-11-29T07:10:04.701Z,21.20
2022-11-29T07:12:32.308Z,21.58
2022-11-29T07:14:59.620Z,22.80
2022-11-29T07:17:26.786Z,21.15
2022-11-29T07:20:13.285Z,22.45
2022-11-29T07:22:58.855Z,20.42
2022-11-29T07:25:29.257Z,22.05
2022-11-29T07:28:01.363Z,25.55
2022-11-29T07:30:50.210Z,18.80
2022-11-29T07:33:23.133Z,20.17
2022-11-29T07:35:50.264Z,22.23
2022-11-29T07:38:22.781Z,23.60
2022-11-29T07:40:57.341Z,20.73
2022-11-29T07:43:24.512Z,21.15
2022-11-29T07:45:51.768Z,24.35
2022-11-29T07:48:19.171Z,20.27
2022-11-29T07:50:46.458Z,21.33
2022-11-29T07:53:18.013Z,19.75
2022-11-29T07:55:45.378Z,22.40
2022-11-29T07:58:13.256Z,20.02
2022-11-29T08:00:41.963Z,21.13
2022-11-29T08:03:10.144Z,19.95
2022-11-29T08:05:37.890Z,19.77
2022-11-29T08:08:05.511Z,26.88
2022-11-29T08:10:32.838Z,24.70
2022-11-29T08:13:00.023Z,21.00
2022-11-29T08:15:27.428Z,19.20
2022-11-29T08:17:54.635Z,22.67
2022-11-29T08:20:21.790Z,19.98
2022-11-29T08:22:56.042Z,19.42
2022-11-29T08:25:23.975Z,20.05
2022-11-29T08:27:51.761Z,21.83
2022-11-29T08:30:22.429Z,22.00
2022-11-29T08:32:51.793Z,20.65
2022-11-29T08:35:20.298Z,19.85
2022-11-29T08:37:47.466Z,19.85
2022-11-29T08:40:14.940Z,20.33
2022-11-29T08:42:42.131Z,19.95
2022-11-29T08:45:09.717Z,25.42
2022-11-29T08:47:37.145Z,22.75
2022-11-29T08:50:12.444Z,20.92
2022-11-29T08:53:00.084Z,20.80
2022-11-29T08:55:28.260Z,20.30
2022-11-29T08:58:00.988Z,20.60
2022-11-29T09:00:28.194Z,19.75
2022-11-29T09:02:55.370Z,21.65
2022-11-29T09:05:22.608Z,21.42
2022-11-29T09:07:49.787Z,21.25
2022-11-29T09:10:17.001Z,20.20
2022-11-29T09:12:44.869Z,23.00
2022-11-29T09:15:12.493Z,20.55
2022-11-29T09:17:39.698Z,24.45
2022-11-29T09:20:08.035Z,20.83
2022-11-29T09:22:35.204Z,19.90
2022-11-29T09:25:03.291Z,21.10
2022-11-29T09:27:30.421Z,21.80
2022-11-29T09:29:57.539Z,18.83
2022-11-29T09:32:24.763Z,21.27
2022-11-29T09:34:51.950Z,20.75
2022-11-29T09:37:19.241Z,19.48
2022-11-29T09:39:46.684Z,20.33
2022-11-29T09:42:28.919Z,19.35
2022-11-29T09:44:56.036Z,19.63
2022-11-29T09:47:28.029Z,19.77
2022-11-29T09:50:17.413Z,19.48
2022-11-29T09:52:50.949Z,18.30
2022-11-29T09:55:20.931Z,20.08
2022-11-29T09:57:49.401Z,18.55
2022-11-29T10:00:19.796Z,18.48
2022-11-29T10:02:50.829Z,19.02
2022-11-29T10:05:30.012Z,20.73
2022-11-29T10:08:00.929Z,18.08
2022-11-29T10:10:30.595Z,18.00
2022-11-29T10:13:02.027Z,17.75
2022-11-29T10:15:31.868Z,17.80
2022-11-29T10:18:02.079Z,19.33
2022-11-29T10:20:39.176Z,17.67
2022-11-29T10:23:16.726Z,17.65
2022-11-29T10:25:48.104Z,17.65
2022-11-29T10:28:16.512Z,17.98
2022-11-29T10:30:44.148Z,17.05
2022-11-29T10:33:30.961Z,16.85
2022-11-29T10:35:59.372Z,17.50
2022-11-29T10:38:31.283Z,18.83
2022-11-29T10:41:03.188Z,23.08
2022-11-29T10:43:30.435Z,17.23
2022-11-29T10:45:58.776Z,16.17
2022-11-29T10:48:28.173Z,15.95
2022-11-29T10:50:55.308Z,16.77
2022-11-29T10:53:31.357Z,17.27
2022-11-29T10:56:10.576Z,16.35
2022-11-29T10:58:53.472Z,16.40
2022-11-29T11:01:20.751Z,16.70
2022-11-29T11:03:53.193Z,16.02
2022-11-29T11:06:22.058Z,15.60
2022-11-29T11:08:53.233Z,16.08
2022-11-29T11:11:25.515Z,16.25
2022-11-29T11:14:00.508Z,15.10
2022-11-29T11:16:31.565Z,15.70
2022-11-29T11:19:21.344Z,16.02
2022-11-29T11:21:48.500Z,16.17
2022-11-29T11:24:23.867Z,15.82
2022-11-29T11:26:51.169Z,15.60
2022-11-29T11:29:20.076Z,14.73
2022-11-29T11:31:57.587Z,16.35
2022-11-29T11:34:25.407Z,15.15
2022-11-29T11:36:53.522Z,15.05
2022-11-29T11:39:24.407Z,15.15
2022-11-29T11:42:10.889Z,17.05
2022-11-29T11:44:48.487Z,14.07
2022-11-29T11:47:20.370Z,14.10
2022-11-29T11:49:56.545Z,15.60
2022-11-29T11:52:25.579Z,13.85
2022-11-29T11:54:55.073Z,13.60
2022-11-29T11:57:24.555Z,13.75
2022-11-29T11:59:52.327Z,15.38
2022-11-29T12:02:49.064Z,14.73
2022-11-29T12:10:39.717Z,14.98
2022-11-29T12:13:07.732Z,14.55
2022-11-29T12:15:38.353Z,14.95
2022-11-29T12:18:13.485Z,15.07
2022-11-29T12:20:51.774Z,14.40
2022-11-29T12:23:19.488Z,14.15
2022-11-29T12:25:50.144Z,14.05
2022-11-29T12:28:20.670Z,14.15
2022-11-29T12:31:03.401Z,16.92
2022-11-29T12:33:49.783Z,15.73
2022-11-29T12:38:54.536Z,14.60
2022-11-29T12:41:28.749Z,13.60
2022-11-29T12:43:58.682Z,14.07
2022-11-29T12:46:26.731Z,15.10
2022-11-29T12:49:08.918Z,13.80
2022-11-29T12:51:43.524Z,13.30
2022-11-29T12:54:29.305Z,14.10
2022-11-29T12:57:01.603Z,13.15
2022-11-29T12:59:39.023Z,13.75
2022-11-29T13:02:15.325Z,15.23
2022-11-29T13:04:46.577Z,12.95
2022-11-29T13:07:26.008Z,15.13
2022-11-29T13:09:59.362Z,13.75
2022-11-29T13:12:32.497Z,18.20
2022-11-29T13:14:59.845Z,14.13
2022-11-29T13:17:36.357Z,12.93
2022-11-29T13:20:19.539Z,14.07
2022-11-29T13:22:46.649Z,15.00
2022-11-29T13:25:23.829Z,12.70
2022-11-29T13:27:59.666Z,12.73
2022-11-29T13:33:04.215Z,13.52
2022-11-29T13:35:31.337Z,13.30
2022-11-29T13:38:10.824Z,13.95
2022-11-29T13:40:39.223Z,13.27
2022-11-29T13:43:06.402Z,12.77
2022-11-29T13:45:50.071Z,18.73
2022-11-29T13:48:29.311Z,43.08
2022-11-29T13:50:59.619Z,47.20
2022-11-29T13:53:45.237Z,61.25
2022-11-29T13:56:26.336Z,47.65
2022-11-29T13:58:54.676Z,53.92
2022-11-29T14:01:23.362Z,147.02
2022-11-29T14:04:07.457Z,112.40
2022-11-29T14:06:36.223Z,104.28
2022-11-29T14:09:25.013Z,144.95
2022-11-29T14:12:01.877Z,205.43
2022-11-29T14:14:31.496Z,157.80
2022-11-29T14:17:00.246Z,141.07
2022-11-29T14:19:33.701Z,146.23
2022-11-29T14:22:10.121Z,139.75
2022-11-29T14:24:37.352Z,129.38
2022-11-29T14:27:12.130Z,133.35
2022-11-29T14:30:05.354Z,127.55
2022-11-29T14:32:51.355Z,124.07
2022-11-29T14:35:27.575Z,125.07
2022-11-29T14:38:13.723Z,115.47
2022-11-29T14:40:40.939Z,113.85
2022-11-29T14:43:26.533Z,118.47
2022-11-29T14:46:09.348Z,116.25
2022-11-29T14:48:37.301Z,108.18
2022-11-29T14:51:12.408Z,109.53
2022-11-29T14:53:40.526Z,104.85
2022-11-29T14:56:26.523Z,105.28
2022-11-29T14:59:12.619Z,94.55
2022-11-29T15:01:44.773Z,100.57
2022-11-29T15:04:12.506Z,102.70
2022-11-29T15:06:46.189Z,92.03
2022-11-29T15:09:19.837Z,87.22
2022-11-29T15:11:53.048Z,96.40
2022-11-29T15:14:40.472Z,82.97
2022-11-29T15:17:27.945Z,83.55
2022-11-29T15:20:13.887Z,87.38
2022-11-29T15:22:54.792Z,88.85
2022-11-29T15:25:24.070Z,89.25
2022-11-29T15:27:55.391Z,83.75
2022-11-29T15:30:22.727Z,83.43
2022-11-29T15:32:50.177Z,75.32
2022-11-29T15:35:18.757Z,74.00
2022-11-29T15:37:46.928Z,79.15
2022-11-29T15:40:16.000Z,74.97
2022-11-29T15:42:43.235Z,76.47
2022-11-29T15:45:24.153Z,72.40
2022-11-29T15:47:51.549Z,70.05
2022-11-29T15:50:30.462Z,73.32
2022-11-29T15:53:00.488Z,80.15
2022-11-29T15:55:28.059Z,71.10
2022-11-29T15:57:56.653Z,72.40
2022-11-29T16:00:25.613Z,78.35
2022-11-29T16:03:02.926Z,68.38
2022-11-29T16:05:32.454Z,83.18
2022-11-29T16:08:02.759Z,65.32
2022-11-29T16:10:35.383Z,63.97
2022-11-29T16:13:07.170Z,74.63
2022-11-29T16:15:38.247Z,69.47
2022-11-29T16:18:17.998Z,70.53
2022-11-29T16:20:58.584Z,66.13
2022-11-29T16:23:33.849Z,58.90
2022-11-29T16:26:14.892Z,63.20
2022-11-29T16:28:43.822Z,64.20
2022-11-29T16:31:18.022Z,62.08
2022-11-29T16:33:47.399Z,61.67
2022-11-29T16:36:24.647Z,63.67
2022-11-29T16:38:51.813Z,56.97
2022-11-29T16:41:24.952Z,62.33
2022-11-29T16:43:54.187Z,61.10
2022-11-29T16:46:21.307Z,54.75
2022-11-29T16:48:52.418Z,56.60
2022-11-29T16:51:23.733Z,55.95
2022-11-29T16:53:51.802Z,53.17
2022-11-29T16:56:24.373Z,55.83
2022-11-29T16:59:24.862Z,50.63
2022-11-29T17:01:43.149Z,50.70
2022-11-29T17:04:10.490Z,53.28
2022-11-29T17:06:37.742Z,54.55
2022-11-29T17:09:05.707Z,54.58
2022-11-29T17:11:32.937Z,52.95
2022-11-29T17:14:01.354Z,54.25
2022-11-29T17:16:28.591Z,57.10
2022-11-29T17:18:55.837Z,42.72
2022-11-29T17:21:24.259Z,46.63
2022-11-29T17:23:51.760Z,46.40
2022-11-29T17:26:19.403Z,53.20
2022-11-29T17:28:47.746Z,44.85
2022-11-29T17:31:22.184Z,52.90
2022-11-29T17:33:49.639Z,48.20
2022-11-29T17:36:18.476Z,75.53
2022-11-29T17:38:46.174Z,36.65
2022-11-29T17:41:14.910Z,38.03
2022-11-29T17:43:42.337Z,40.97
2022-11-29T17:46:14.465Z,38.70
2022-11-29T17:48:42.682Z,41.30
2022-11-29T17:51:36.023Z,36.85
2022-11-29T17:54:00.554Z,35.90
2022-11-29T17:56:29.080Z,42.20
2022-11-29T17:58:57.105Z,42.67
2022-11-29T18:01:25.571Z,46.10
2022-11-29T18:03:56.955Z,40.95
2022-11-29T18:06:25.434Z,39.15
2022-11-29T18:08:56.794Z,39.25
2022-11-29T18:11:28.824Z,40.88
2022-11-29T18:13:56.759Z,38.55
2022-11-29T18:16:25.653Z,37.08
2022-11-29T18:18:57.465Z,39.50
2022-11-29T18:21:24.930Z,39.00
2022-11-29T18:23:52.133Z,36.58
2022-11-29T18:26:20.489Z,37.00
2022-11-29T18:28:48.043Z,34.67
2022-11-29T18:31:16.619Z,38.67
2022-11-29T18:33:44.719Z,32.60
2022-11-29T18:36:13.463Z,35.40
2022-11-29T18:38:41.771Z,39.33
2022-11-29T18:41:08.942Z,34.92
2022-11-29T18:43:37.296Z,31.13
2022-11-29T18:46:07.648Z,31.08
2022-11-29T18:48:34.840Z,33.60
2022-11-29T18:51:02.841Z,32.78
2022-11-29T18:53:30.487Z,26.98
2022-11-29T18:56:05.316Z,29.90
2022-11-29T18:58:32.748Z,26.95
2022-11-29T19:01:07.217Z,31.48
2022-11-29T19:03:38.534Z,26.30
2022-11-29T19:06:06.714Z,33.45
2022-11-29T19:08:34.514Z,29.17
2022-11-29T19:11:11.778Z,27.95
2022-11-29T19:13:39.475Z,27.60
2022-11-29T19:16:12.997Z,30.27
2022-11-29T19:18:40.793Z,32.25
2022-11-29T19:21:09.366Z,28.27
2022-11-29T19:23:36.578Z,25.05
2022-11-29T19:26:04.662Z,29.80
2022-11-29T19:28:31.942Z,27.10
2022-11-29T19:30:59.193Z,30.10
2022-11-29T19:33:26.423Z,28.50
2022-11-29T19:35:53.532Z,28.30
2022-11-29T19:38:20.671Z,23.77
2022-11-29T19:40:47.856Z,25.65
2022-11-29T19:43:15.008Z,24.10
2022-11-29T19:45:42.135Z,26.10
2022-11-29T19:48:09.371Z,26.73
2022-11-29T19:50:36.625Z,26.38
2022-11-29T19:53:03.961Z,24.60
2022-11-29T19:55:31.181Z,26.10
2022-11-29T19:57:58.360Z,24.65
2022-11-29T20:00:25.587Z,22.92
2022-11-29T20:02:52.783Z,24.52
2022-11-29T20:05:20.050Z,28.10
2022-11-29T20:07:47.231Z,23.52
2022-11-29T20:10:14.463Z,22.63
2022-11-29T20:12:41.672Z,26.13
2022-11-29T20:15:08.956Z,27.08
2022-11-29T20:17:36.132Z,22.60
2022-11-29T20:20:03.337Z,25.58
2022-11-29T20:22:30.497Z,20.58
2022-11-29T20:24:57.629Z,19.73
2022-11-29T20:27:24.925Z,22.30
2022-11-29T20:29:52.086Z,22.27
2022-11-29T20:32:19.998Z,24.58
2022-11-29T20:34:47.260Z,23.80
2022-11-29T20:37:26.309Z,19.40
2022-11-29T20:40:04.331Z,25.48
2022-11-29T20:42:45.033Z,23.95
2022-11-29T20:45:13.257Z,23.60
2022-11-29T20:47:49.617Z,29.35
2022-11-29T20:50:23.577Z,24.67
2022-11-29T20:53:09.350Z,28.35
2022-11-29T20:55:43.666Z,24.93
2022-11-29T20:58:13.628Z,28.92
2022-11-29T21:00:41.138Z,24.10
2022-11-29T21:03:08.242Z,23.85
2022-11-29T21:05:37.897Z,27.63
2022-11-29T21:08:08.048Z,24.70
2022-11-29T21:10:35.688Z,22.65
2022-11-29T21:13:02.966Z,21.60
2022-11-29T21:15:30.326Z,22.88
2022-11-29T21:17:57.692Z,18.30
2022-11-29T21:20:26.003Z,19.67
2022-11-29T21:23:16.165Z,21.83
2022-11-29T21:26:07.082Z,20.33
2022-11-29T21:28:37.898Z,20.35
2022-11-29T21:31:05.196Z,22.02
2022-11-29T21:33:32.626Z,22.80
2022-11-29T21:35:59.873Z,22.08
2022-11-29T21:38:29.494Z,18.85
2022-11-29T21:40:56.708Z,22.65
2022-11-29T21:43:50.229Z,25.20
2022-11-29T21:46:11.247Z,18.30
2022-11-29T21:48:38.497Z,25.90
2022-11-29T21:51:07.369Z,17.15
2022-11-29T21:53:35.568Z,18.58
2022-11-29T21:56:05.046Z,20.05
2022-11-29T21:58:33.325Z,21.70
2022-11-29T22:01:07.325Z,18.98
2022-11-29T22:03:34.537Z,16.58
2022-11-29T22:06:04.502Z,21.30
2022-11-29T22:08:34.412Z,17.67
2022-11-29T22:11:05.232Z,16.77
2022-11-29T22:13:32.530Z,19.85
2022-11-29T22:16:09.772Z,22.08
2022-11-29T22:18:37.259Z,22.13
2022-11-29T22:21:05.744Z,19.20
2022-11-29T22:23:33.204Z,22.85
2022-11-29T22:26:07.489Z,20.50
2022-11-29T22:28:35.663Z,16.77
2022-11-29T22:31:07.656Z,18.15
2022-11-29T22:33:34.963Z,17.83
2022-11-29T22:36:09.616Z,18.98
2022-11-29T22:38:37.261Z,19.52
2022-11-29T22:41:08.768Z,17.10
2022-11-29T22:43:36.344Z,24.88
2022-11-29T22:46:04.633Z,19.10
2022-11-29T22:48:38.231Z,16.23
2022-11-29T22:51:07.255Z,18.52
2022-11-29T22:53:35.207Z,21.35
2022-11-29T22:56:02.889Z,19.20
2022-11-29T22:58:30.206Z,19.73
2022-11-29T23:01:07.844Z,20.60
2022-11-29T23:03:35.676Z,17.77
2022-11-29T23:06:04.321Z,18.75
2022-11-29T23:08:31.713Z,21.23
2022-11-29T23:10:59.464Z,18.15
2022-11-29T23:13:26.816Z,20.17
2022-11-29T23:15:54.223Z,20.35
2022-11-29T23:18:21.348Z,19.00
2022-11-29T23:20:48.551Z,22.33
2022-11-29T23:23:15.745Z,18.08
2022-11-29T23:25:47.459Z,21.60
2022-11-29T23:28:14.623Z,20.48
2022-11-29T23:30:41.793Z,15.95
2022-11-29T23:33:09.866Z,18.33
2022-11-29T23:35:37.044Z,22.90
2022-11-29T23:38:04.357Z,19.08
2022-11-29T23:40:31.504Z,20.30
2022-11-29T23:42:58.670Z,20.90
2022-11-29T23:45:25.885Z,23.48
2022-11-29T23:47:53.034Z,19.65
2022-11-29T23:50:20.186Z,18.88
2022-11-29T23:52:52.116Z,25.63
2022-11-29T23:55:19.844Z,20.13
2022-11-29T23:57:47.093Z,21.02
